createdAt,value
2022-08-11T00:01:01.257Z,4.68
2022-08-11T00:03:43.561Z,11.20
2022-08-11T00:06:11.291Z,10.50
2022-08-11T00:08:38.504Z,7.70
2022-08-11T00:11:06.085Z,7.70
2022-08-11T00:13:33.328Z,9.50
2022-08-11T00:16:00.797Z,9.15
2022-08-11T00:18:28.109Z,7.57
2022-08-11T00:20:55.460Z,8.43
2022-08-11T00:23:22.657Z,8.15
2022-08-11T00:25:49.894Z,4.88
2022-08-11T00:28:17.166Z,4.30
2022-08-11T00:30:44.427Z,7.35
2022-08-11T00:33:11.668Z,7.03
2022-08-11T00:35:51.760Z,6.38
2022-08-11T00:38:23.712Z,6.95
2022-08-11T00:40:50.934Z,7.13
2022-08-11T00:43:20.075Z,6.20
2022-08-11T00:45:48.132Z,7.93
2022-08-11T00:48:15.460Z,5.53
2022-08-11T00:50:42.758Z,7.82
2022-08-11T00:53:09.974Z,5.35
2022-08-11T00:55:37.339Z,8.90
2022-08-11T00:58:04.558Z,6.85
2022-08-11T01:00:32.050Z,10.68
2022-08-11T01:02:59.454Z,7.15
2022-08-11T01:05:27.297Z,7.32
2022-08-11T01:08:01.261Z,7.85
2022-08-11T01:10:30.784Z,6.88
2022-08-11T01:12:57.982Z,8.98
2022-08-11T01:15:25.341Z,7.78
2022-08-11T01:17:52.906Z,5.80
2022-08-11T01:20:47.639Z,9.23
2022-08-11T01:23:07.632Z,8.60
2022-08-11T01:25:57.232Z,6.70
2022-08-11T01:28:25.120Z,7.15
2022-08-11T01:30:54.220Z,8.77
2022-08-11T01:33:21.659Z,7.85
2022-08-11T01:35:48.905Z,7.22
2022-08-11T01:38:16.173Z,10.77
2022-08-11T01:40:43.377Z,10.10
2022-08-11T01:43:29.699Z,7.53
2022-08-11T01:45:56.933Z,4.80
2022-08-11T01:48:24.124Z,11.25
2022-08-11T01:50:51.635Z,6.57
2022-08-11T01:53:18.846Z,7.32
2022-08-11T01:55:46.089Z,5.38
2022-08-11T01:58:13.303Z,6.80
2022-08-11T02:00:43.568Z,11.30
2022-08-11T02:03:10.816Z,9.52
2022-08-11T02:05:38.074Z,15.40
2022-08-11T02:08:05.270Z,14.25
2022-08-11T02:10:53.088Z,15.63
2022-08-11T02:13:33.431Z,13.13
2022-08-11T02:16:03.204Z,12.00
2022-08-11T02:18:50.354Z,16.10
2022-08-11T02:21:36.328Z,12.27
2022-08-11T02:24:05.419Z,11.00
2022-08-11T02:26:34.704Z,10.88
2022-08-11T02:29:02.028Z,11.43
2022-08-11T02:32:24.094Z,10.38
2022-08-11T02:37:02.357Z,11.35
2022-08-11T02:39:30.070Z,9.75
2022-08-11T02:42:34.882Z,11.07
2022-08-11T02:45:03.493Z,10.82
2022-08-11T02:47:30.706Z,11.15
2022-08-11T02:50:06.526Z,9.98
2022-08-11T02:52:35.044Z,10.30
2022-08-11T02:55:02.261Z,11.82
2022-08-11T02:57:29.550Z,12.30
2022-08-11T02:59:56.769Z,13.38
2022-08-11T03:02:24.709Z,9.32
2022-08-11T03:04:51.897Z,10.27
2022-08-11T03:07:29.112Z,9.35
2022-08-11T03:09:56.981Z,5.82
2022-08-11T03:12:43.097Z,9.65
2022-08-11T03:15:29.184Z,10.45
2022-08-11T03:17:56.454Z,12.30
2022-08-11T03:20:24.093Z,12.70
2022-08-11T03:22:51.378Z,8.75
2022-08-11T03:25:18.585Z,8.35
2022-08-11T03:27:45.858Z,8.02
2022-08-11T03:30:13.096Z,11.32
2022-08-11T03:32:41.040Z,11.70
2022-08-11T03:35:08.261Z,7.97
2022-08-11T03:37:50.989Z,6.97
2022-08-11T03:40:38.201Z,12.55
2022-08-11T03:43:05.877Z,6.85
2022-08-11T03:45:36.245Z,6.80
2022-08-11T03:48:06.669Z,14.43
2022-08-11T03:50:33.921Z,16.65
2022-08-11T03:53:01.135Z,13.32
2022-08-11T03:55:28.474Z,8.35
2022-08-11T03:57:55.683Z,9.25
2022-08-11T04:00:22.980Z,10.75
2022-08-11T04:02:50.202Z,10.35
2022-08-11T04:05:17.478Z,11.82
2022-08-11T04:07:44.812Z,12.75
2022-08-11T04:10:12.176Z,9.07
2022-08-11T04:12:41.233Z,9.05
2022-08-11T04:15:30.280Z,8.80
2022-08-11T04:17:57.800Z,11.00
2022-08-11T04:20:24.991Z,9.70
2022-08-11T04:22:52.252Z,12.38
2022-08-11T04:25:19.532Z,10.15
2022-08-11T04:27:47.711Z,10.45
2022-08-11T04:30:16.793Z,14.05
2022-08-11T04:32:44.078Z,15.63
2022-08-11T04:35:11.345Z,13.32
2022-08-11T04:37:38.635Z,14.18
2022-08-11T04:40:05.897Z,12.23
2022-08-11T04:42:51.842Z,12.05
2022-08-11T04:45:19.121Z,12.98
2022-08-11T04:48:05.218Z,13.68
2022-08-11T04:51:08.577Z,13.43
2022-08-11T05:01:56.754Z,12.07
2022-08-11T05:04:42.821Z,12.13
2022-08-11T05:07:10.077Z,15.65
2022-08-11T05:09:37.307Z,15.73
2022-08-11T05:12:04.637Z,11.88
2022-08-11T05:14:50.611Z,16.75
2022-08-11T05:17:36.857Z,10.35
2022-08-11T05:20:23.197Z,12.80
2022-08-11T05:23:29.290Z,23.73
2022-08-11T05:26:47.780Z,42.65
2022-08-11T05:29:21.140Z,48.90
2022-08-11T05:32:07.052Z,38.75
2022-08-11T05:34:53.000Z,17.75
2022-08-11T05:37:28.054Z,17.13
2022-08-11T05:40:14.277Z,32.70
2022-08-11T05:43:00.480Z,31.48
2022-08-11T05:45:58.284Z,35.30
2022-08-11T05:48:50.467Z,36.53
2022-08-11T05:51:36.527Z,30.92
2022-08-11T05:54:29.365Z,53.53
2022-08-11T05:56:57.018Z,47.42
2022-08-11T05:59:24.246Z,48.55
2022-08-11T06:01:51.585Z,48.38
2022-08-11T06:04:18.996Z,34.92
2022-08-11T06:06:47.142Z,48.30
2022-08-11T06:09:14.518Z,47.45
2022-08-11T06:11:44.219Z,60.97
2022-08-11T06:14:12.144Z,56.15
2022-08-11T06:16:39.361Z,58.53
2022-08-11T06:19:06.664Z,47.88
2022-08-11T06:21:33.896Z,64.32
2022-08-11T06:24:01.192Z,50.85
2022-08-11T06:26:28.412Z,68.20
2022-08-11T06:28:56.060Z,51.53
2022-08-11T06:31:26.342Z,41.55
2022-08-11T06:33:53.670Z,45.03
2022-08-11T06:36:20.966Z,42.28
2022-08-11T06:38:48.349Z,41.17
2022-08-11T06:41:30.963Z,53.97
2022-08-11T06:44:00.894Z,49.85
2022-08-11T06:46:32.077Z,52.07
2022-08-11T06:48:59.311Z,50.60
2022-08-11T06:51:26.607Z,35.05
2022-08-11T06:54:04.528Z,34.30
2022-08-11T06:57:06.381Z,37.75
2022-08-11T06:59:57.527Z,31.63
2022-08-11T07:02:30.975Z,36.03
2022-08-11T07:05:00.873Z,31.45
2022-08-11T07:07:46.794Z,23.65
2022-08-11T07:10:32.958Z,33.45
2022-08-11T07:13:45.112Z,31.20
2022-08-11T07:16:14.161Z,31.35
2022-08-11T07:19:00.236Z,29.88
2022-08-11T07:22:01.010Z,23.38
2022-08-11T07:24:59.502Z,30.10
2022-08-11T07:27:48.919Z,28.63
2022-08-11T07:30:16.230Z,31.08
2022-08-11T07:32:43.450Z,24.05
2022-08-11T07:35:13.249Z,29.10
2022-08-11T07:37:40.696Z,28.98
2022-08-11T07:40:07.958Z,25.63
2022-08-11T07:42:38.504Z,35.15
2022-08-11T07:45:24.818Z,29.15
2022-08-11T07:48:10.808Z,25.35
2022-08-11T07:50:57.594Z,23.65
2022-08-11T07:53:25.065Z,26.80
2022-08-11T07:55:53.504Z,27.55
2022-08-11T07:58:52.329Z,29.05
2022-08-11T08:01:39.610Z,26.88
2022-08-11T08:04:25.963Z,30.58
2022-08-11T08:07:11.938Z,30.92
2022-08-11T08:09:58.277Z,25.02
2022-08-11T08:12:44.314Z,22.85
2022-08-11T08:15:30.430Z,30.77
2022-08-11T08:18:20.556Z,32.85
2022-08-11T08:20:45.661Z,26.38
2022-08-11T08:23:13.143Z,20.67
2022-08-11T08:25:40.547Z,27.08
2022-08-11T08:28:08.002Z,15.95
2022-08-11T08:30:47.616Z,16.23
2022-08-11T08:33:15.091Z,31.08
2022-08-11T08:35:55.827Z,18.13
2022-08-11T08:38:23.340Z,23.55
2022-08-11T08:40:50.549Z,21.65
2022-08-11T08:43:18.418Z,23.65
2022-08-11T08:45:45.907Z,21.10
2022-08-11T08:48:13.318Z,24.45
2022-08-11T08:50:59.372Z,23.42
2022-08-11T08:53:29.626Z,15.18
2022-08-11T08:55:56.947Z,21.08
2022-08-11T08:58:24.205Z,19.60
2022-08-11T09:00:51.554Z,17.73
2022-08-11T09:06:07.014Z,16.88
2022-08-11T09:08:35.191Z,25.17
2022-08-11T09:11:21.315Z,20.88
2022-08-11T09:14:03.231Z,23.00
2022-08-11T09:16:34.069Z,21.45
2022-08-11T09:19:01.325Z,19.75
2022-08-11T09:21:44.597Z,17.70
2022-08-11T09:24:34.912Z,15.00
2022-08-11T09:27:04.016Z,12.68
2022-08-11T09:29:31.458Z,14.00
2022-08-11T09:31:58.694Z,10.68
2022-08-11T09:34:26.499Z,14.07
2022-08-11T09:37:12.433Z,15.00
2022-08-11T09:39:58.589Z,13.88
2022-08-11T09:42:49.231Z,9.63
2022-08-11T09:45:16.480Z,10.75
2022-08-11T09:47:44.953Z,13.57
2022-08-11T09:50:12.263Z,14.90
2022-08-11T09:52:48.261Z,11.88
2022-08-11T09:55:24.603Z,10.05
2022-08-11T09:58:10.597Z,14.85
2022-08-11T10:00:38.126Z,9.50
2022-08-11T10:03:07.171Z,12.02
2022-08-11T10:05:53.386Z,11.70
2022-08-11T10:08:20.756Z,9.50
2022-08-11T10:10:48.079Z,8.95
2022-08-11T10:14:30.651Z,9.68
2022-08-11T10:16:15.394Z,11.05
2022-08-11T10:18:53.541Z,9.73
2022-08-11T10:21:20.920Z,7.90
2022-08-11T10:24:14.520Z,9.77
2022-08-11T10:27:00.686Z,8.43
2022-08-11T10:29:50.201Z,10.68
2022-08-11T10:32:37.843Z,10.75
2022-08-11T10:35:27.696Z,10.80
2022-08-11T10:38:15.793Z,8.05
2022-08-11T10:40:42.236Z,10.00
2022-08-11T10:44:01.896Z,9.38
2022-08-11T10:46:35.563Z,11.63
2022-08-11T10:49:02.840Z,8.40
2022-08-11T10:51:50.918Z,7.15
2022-08-11T10:54:38.144Z,9.48
2022-08-11T10:57:24.222Z,6.22
2022-08-11T10:59:52.362Z,12.80
2022-08-11T11:02:19.570Z,4.57
2022-08-11T11:04:50.412Z,7.43
2022-08-11T11:07:19.940Z,11.35
2022-08-11T11:09:47.192Z,9.82
2022-08-11T11:12:33.370Z,4.43
2022-08-11T11:15:19.687Z,4.25
2022-08-11T11:17:56.260Z,7.40
2022-08-11T11:20:36.039Z,3.58
2022-08-11T11:23:04.957Z,3.67
2022-08-11T11:25:32.304Z,8.07
2022-08-11T11:27:59.667Z,5.18
2022-08-11T11:30:27.206Z,10.57
2022-08-11T11:32:54.975Z,6.22
2022-08-11T11:35:23.882Z,13.88
2022-08-11T11:38:03.410Z,7.22
2022-08-11T11:40:32.378Z,4.97
2022-08-11T11:42:59.765Z,2.53
2022-08-11T11:45:27.082Z,5.28
2022-08-11T11:47:54.390Z,3.72
2022-08-11T11:50:24.076Z,8.93
2022-08-11T11:52:54.575Z,5.15
2022-08-11T11:58:08.908Z,5.85
2022-08-11T12:01:02.073Z,5.53
2022-08-11T12:03:29.418Z,4.75
2022-08-11T12:05:56.888Z,1.85
2022-08-11T12:08:27.583Z,3.40
2022-08-11T12:11:14.034Z,4.43
2022-08-11T12:13:41.330Z,3.67
2022-08-11T12:16:34.259Z,3.83
2022-08-11T12:18:56.592Z,9.15
2022-08-11T12:21:23.851Z,5.65
2022-08-11T12:24:10.263Z,5.95
2022-08-11T12:27:15.966Z,2.97
2022-08-11T12:29:39.835Z,2.97
2022-08-11T12:32:10.994Z,6.88
2022-08-11T12:34:38.241Z,6.05
2022-08-11T12:37:13.694Z,4.03
2022-08-11T12:40:16.552Z,1.73
2022-08-11T12:43:20.709Z,6.28
2022-08-11T12:45:49.493Z,1.83
2022-08-11T12:49:01.272Z,1.65
2022-08-11T12:52:12.143Z,1.80
2022-08-11T12:54:29.061Z,1.75
2022-08-11T12:57:15.199Z,1.80
2022-08-11T13:00:10.303Z,4.53
2022-08-11T13:02:56.501Z,5.28
2022-08-11T13:05:23.809Z,3.35
2022-08-11T13:07:51.534Z,2.30
2022-08-11T13:10:39.236Z,2.85
2022-08-11T13:13:06.567Z,2.65
2022-08-11T13:15:54.007Z,3.10
2022-08-11T13:18:23.834Z,6.75
2022-08-11T13:20:51.306Z,11.20
2022-08-11T13:23:18.626Z,3.83
2022-08-11T13:25:46.035Z,3.95
2022-08-11T13:28:13.285Z,1.95
2022-08-11T13:30:59.575Z,5.28
2022-08-11T13:33:27.007Z,3.08
2022-08-11T13:35:56.018Z,4.32
2022-08-11T13:38:23.746Z,2.67
2022-08-11T13:40:55.999Z,7.50
2022-08-11T13:43:23.664Z,5.07
2022-08-11T13:45:53.051Z,10.15
2022-08-11T13:48:20.634Z,3.20
2022-08-11T13:51:06.724Z,1.73
2022-08-11T13:53:35.237Z,2.78
2022-08-11T13:56:03.890Z,7.15
2022-08-11T13:58:40.152Z,1.48
2022-08-11T14:02:20.120Z,4.65
2022-08-11T14:04:29.133Z,1.70
2022-08-11T14:06:46.230Z,3.58
2022-08-11T14:09:14.581Z,2.13
2022-08-11T14:12:23.441Z,8.07
2022-08-11T14:14:47.881Z,5.22
2022-08-11T14:17:47.131Z,2.22
2022-08-11T14:20:02.527Z,1.92
2022-08-11T14:22:49.803Z,2.15
2022-08-11T14:25:17.088Z,22.73
2022-08-11T14:28:29.527Z,5.00
2022-08-11T14:30:50.686Z,2.65
2022-08-11T14:33:20.261Z,4.50
2022-08-11T14:35:48.849Z,6.88
2022-08-11T14:38:17.836Z,3.58
2022-08-11T14:41:04.123Z,5.13
2022-08-11T14:44:13.703Z,2.58
2022-08-11T14:46:56.093Z,6.30
2022-08-11T14:49:23.393Z,3.35
2022-08-11T14:51:53.728Z,5.38
2022-08-11T14:54:39.952Z,4.97
2022-08-11T14:57:07.322Z,2.47
2022-08-11T14:59:34.732Z,4.78
2022-08-11T15:02:20.867Z,6.30
2022-08-11T15:04:48.147Z,4.45
2022-08-11T15:07:17.319Z,6.10
2022-08-11T15:10:09.875Z,6.35
2022-08-11T15:12:33.553Z,4.00
2022-08-11T15:15:20.086Z,3.70
2022-08-11T15:17:49.397Z,4.90
2022-08-11T15:20:35.737Z,3.45
2022-08-11T15:23:21.926Z,3.97
2022-08-11T15:25:49.267Z,2.75
2022-08-11T15:28:35.288Z,4.00
2022-08-11T15:31:21.457Z,4.63
2022-08-11T15:34:07.689Z,4.50
2022-08-11T15:36:53.768Z,2.70
2022-08-11T15:39:21.238Z,5.78
2022-08-11T15:42:07.407Z,2.53
2022-08-11T15:45:03.213Z,2.78
2022-08-11T15:47:30.936Z,9.73
2022-08-11T15:50:10.673Z,8.35
2022-08-11T15:52:40.567Z,3.17
2022-08-11T15:55:08.637Z,6.15
2022-08-11T15:57:54.997Z,4.43
2022-08-11T16:00:41.315Z,3.15
2022-08-11T16:04:06.816Z,6.13
2022-08-11T16:06:14.569Z,3.83
2022-08-11T16:08:42.725Z,2.10
2022-08-11T16:11:11.875Z,7.82
2022-08-11T16:13:42.170Z,3.90
2022-08-11T16:16:15.510Z,4.32
2022-08-11T16:18:43.030Z,8.57
2022-08-11T16:21:10.258Z,4.50
2022-08-11T16:23:57.947Z,3.80
2022-08-11T16:27:10.129Z,6.13
2022-08-11T16:29:12.565Z,6.95
2022-08-11T16:31:39.796Z,4.40
2022-08-11T16:34:27.139Z,3.83
2022-08-11T16:37:13.355Z,4.22
2022-08-11T16:39:40.988Z,3.63
2022-08-11T16:43:08.477Z,4.20
2022-08-11T16:45:35.224Z,5.10
2022-08-11T16:48:37.573Z,3.78
2022-08-11T16:50:50.081Z,2.78
2022-08-11T16:53:17.672Z,2.28
2022-08-11T16:55:51.944Z,5.43
2022-08-11T16:58:39.003Z,4.10
2022-08-11T17:01:06.364Z,4.88
2022-08-11T17:03:52.407Z,3.60
2022-08-11T17:06:38.559Z,5.53
2022-08-11T17:09:24.990Z,7.60
2022-08-11T17:12:11.138Z,2.40
2022-08-11T17:14:38.410Z,4.28
2022-08-11T17:17:05.644Z,4.53
2022-08-11T17:20:41.139Z,3.05
2022-08-11T17:22:39.100Z,4.70
2022-08-11T17:25:06.398Z,2.45
2022-08-11T17:27:33.660Z,3.67
2022-08-11T17:30:00.966Z,1.88
2022-08-11T17:32:56.166Z,3.90
2022-08-11T17:35:34.314Z,2.00
2022-08-11T17:38:04.046Z,2.13
2022-08-11T17:40:31.330Z,3.10
2022-08-11T17:43:17.506Z,6.47
2022-08-11T17:46:03.717Z,2.13
2022-08-11T17:48:31.215Z,7.00
2022-08-11T17:50:59.274Z,5.88
2022-08-11T17:54:10.240Z,5.05
2022-08-11T17:56:54.028Z,3.60
2022-08-11T17:59:40.473Z,5.93
2022-08-11T18:02:35.304Z,5.97
2022-08-11T18:05:02.714Z,3.78
2022-08-11T18:07:49.030Z,5.60
2022-08-11T18:10:39.908Z,5.53
2022-08-11T18:13:26.242Z,6.80
2022-08-11T18:16:12.598Z,5.47
2022-08-11T18:18:58.689Z,4.82
2022-08-11T18:21:44.676Z,3.95
2022-08-11T18:24:30.872Z,4.07
2022-08-11T18:27:17.199Z,4.10
2022-08-11T18:30:08.083Z,2.28
2022-08-11T18:33:09.143Z,4.20
2022-08-11T18:36:00.330Z,3.70
2022-08-11T18:38:47.377Z,2.05
2022-08-11T18:41:33.447Z,1.80
2022-08-11T18:44:19.585Z,2.92
2022-08-11T18:47:05.966Z,6.18
2022-08-11T18:50:03.577Z,3.58
2022-08-11T18:52:51.446Z,6.90
2022-08-11T18:55:37.618Z,4.82
2022-08-11T18:58:23.776Z,3.78
2022-08-11T19:01:09.986Z,4.40
2022-08-11T19:03:56.071Z,4.97
2022-08-11T19:06:56.836Z,5.68
2022-08-11T19:09:42.833Z,3.13
2022-08-11T19:12:29.059Z,2.67
2022-08-11T19:15:15.278Z,6.90
2022-08-11T19:18:01.357Z,4.78
2022-08-11T19:20:47.528Z,5.07
2022-08-11T19:23:33.746Z,5.47
2022-08-11T19:26:20.188Z,8.55
2022-08-11T19:29:06.548Z,5.43
2022-08-11T19:31:52.753Z,6.72
2022-08-11T19:34:38.870Z,8.25
2022-08-11T19:37:25.559Z,3.92
2022-08-11T19:40:11.908Z,3.58
2022-08-11T19:42:58.053Z,5.15
2022-08-11T19:45:50.372Z,7.50
2022-08-11T19:48:39.129Z,4.53
2022-08-11T19:51:25.243Z,7.88
2022-08-11T19:54:11.286Z,5.82
2022-08-11T19:56:57.455Z,5.05
2022-08-11T19:59:43.862Z,6.07
2022-08-11T20:02:30.081Z,10.55
2022-08-11T20:05:16.498Z,6.80
2022-08-11T20:08:02.613Z,3.72
2022-08-11T20:10:48.701Z,3.53
2022-08-11T20:13:34.742Z,3.20
2022-08-11T20:16:21.078Z,4.20
2022-08-11T20:19:07.159Z,3.13
2022-08-11T20:21:53.312Z,8.63
2022-08-11T20:24:39.470Z,8.30
2022-08-11T20:27:25.701Z,6.50
2022-08-11T20:30:11.856Z,8.25
2022-08-11T20:32:58.156Z,5.72
2022-08-11T20:35:44.190Z,4.93
2022-08-11T20:38:30.205Z,8.27
2022-08-11T20:41:16.548Z,7.55
2022-08-11T20:44:06.337Z,3.00
2022-08-11T20:46:55.282Z,7.05
2022-08-11T20:49:47.754Z,7.75
2022-08-11T20:52:40.272Z,5.15
2022-08-11T20:55:51.663Z,3.92
2022-08-11T20:59:01.035Z,4.10
2022-08-11T21:04:54.270Z,9.13
2022-08-11T21:07:41.831Z,8.50
2022-08-11T21:10:28.153Z,7.95
2022-08-11T21:13:26.223Z,8.05
2022-08-11T21:16:25.691Z,6.53
2022-08-11T21:19:12.891Z,5.75
2022-08-11T21:21:58.886Z,7.97
2022-08-11T21:24:46.878Z,6.22
2022-08-11T21:27:34.257Z,3.92
2022-08-11T21:30:20.427Z,5.72
2022-08-11T21:33:06.693Z,5.22
2022-08-11T21:35:52.880Z,7.60
2022-08-11T21:38:38.986Z,8.98
2022-08-11T21:41:25.007Z,8.23
2022-08-11T21:44:11.263Z,9.85
2022-08-11T21:46:57.584Z,7.05
2022-08-11T21:49:43.951Z,6.65
2022-08-11T21:52:30.230Z,8.70
2022-08-11T21:55:16.467Z,5.85
2022-08-11T21:58:02.870Z,7.20
2022-08-11T22:00:49.045Z,5.22
2022-08-11T22:03:41.077Z,12.80
2022-08-11T22:06:36.634Z,11.15
2022-08-11T22:09:22.586Z,8.73
2022-08-11T22:12:29.760Z,10.82
2022-08-11T22:15:14.892Z,7.88
2022-08-11T22:18:01.112Z,6.78
2022-08-11T22:20:47.414Z,6.72
2022-08-11T22:23:35.811Z,6.25
2022-08-11T22:26:22.634Z,5.95
2022-08-11T22:29:08.946Z,6.07
2022-08-11T22:31:55.100Z,6.45
2022-08-11T22:34:53.121Z,8.85
2022-08-11T22:37:39.742Z,5.75
2022-08-11T22:40:26.021Z,9.35
2022-08-11T22:43:12.102Z,3.53
2022-08-11T22:45:58.372Z,6.53
2022-08-11T22:48:44.707Z,7.72
2022-08-11T22:51:30.836Z,8.32
2022-08-11T22:54:16.905Z,11.25
2022-08-11T22:57:02.914Z,13.85
2022-08-11T22:59:49.006Z,9.43
2022-08-11T23:02:35.134Z,8.85
2022-08-11T23:05:21.213Z,14.20
2022-08-11T23:08:07.335Z,9.10
2022-08-11T23:10:53.511Z,12.43
2022-08-11T23:13:39.536Z,8.18
2022-08-11T23:16:25.804Z,7.30
2022-08-11T23:19:11.966Z,7.82
2022-08-11T23:21:58.323Z,9.82
2022-08-11T23:24:44.962Z,9.75
2022-08-11T23:27:31.098Z,9.07
2022-08-11T23:30:18.784Z,7.32
2022-08-11T23:33:05.049Z,7.18
2022-08-11T23:35:56.614Z,6.78
2022-08-11T23:38:46.068Z,11.27
2022-08-11T23:41:32.171Z,7.13
2022-08-11T23:44:18.333Z,9.25
2022-08-11T23:47:04.319Z,7.38
2022-08-11T23:49:50.354Z,12.45
2022-08-11T23:52:36.600Z,9.77
2022-08-11T23:55:22.669Z,9.02
2022-08-11T23:58:08.766Z,7.05
